Terminal Aerodrome Forecast
Issued by NWS Kansas City/Pleasant Hill, MO

Home | Current Version | Previous Version | Text Only | Print | Product List | Glossary On
Versions: 1 2 3 4 5 6 7 8 9 10 11 12 13 14 15 16 17 18 19 20 21 22 23 24 25 26
000
FTUS43 KEAX 272320
TAFMCI
TAF
KMCI 272320Z 2800/2824 26013G21KT P6SM SCT070 BKN080 BKN200
     FM280100 27007KT P6SM BKN040
     FM281300 27010KT P6SM SCT020 BKN100
     FM282100 31009KT P6SM SCT100=

USA.gov is the U.S. government's official web portal to all federal, state and local government web resources and services.